sensor_id;sensor_type;location;lat;lon;timestamp;P1;durP1;ratioP1;P2;durP2;ratioP2
21816;SDS011;13247;47.504;7.382;2024-01-30T00:02:31;7.63;;;4.63;;
21816;SDS011;13247;47.504;7.382;2024-01-30T00:05:16;9.73;;;5.50;;
21816;SDS011;13247;47.504;7.382;2024-01-30T00:08:00;10.90;;;5.95;;
21816;SDS011;13247;47.504;7.382;2024-01-30T00:10:45;8.43;;;5.32;;
21816;SDS011;13247;47.504;7.382;2024-01-30T00:13:29;9.68;;;4.78;;
21816;SDS011;13247;47.504;7.382;2024-01-30T00:16:23;5.82;;;3.95;;
21816;SDS011;13247;47.504;7.382;2024-01-30T00:19:08;6.85;;;4.05;;
21816;SDS011;13247;47.504;7.382;2024-01-30T00:21:53;7.57;;;3.55;;
21816;SDS011;13247;47.504;7.382;2024-01-30T00:24:38;9.25;;;4.03;;
21816;SDS011;13247;47.504;7.382;2024-01-30T00:27:22;5.65;;;3.78;;
21816;SDS011;13247;47.504;7.382;2024-01-30T00:30:07;4.70;;;3.42;;
21816;SDS011;13247;47.504;7.382;2024-01-30T00:32:53;6.30;;;3.60;;
21816;SDS011;13247;47.504;7.382;2024-01-30T00:35:38;5.70;;;3.60;;
21816;SDS011;13247;47.504;7.382;2024-01-30T00:38:22;6.25;;;3.70;;
21816;SDS011;13247;47.504;7.382;2024-01-30T00:41:10;7.38;;;3.63;;
21816;SDS011;13247;47.504;7.382;2024-01-30T00:43:55;8.70;;;3.67;;
21816;SDS011;13247;47.504;7.382;2024-01-30T00:46:40;5.55;;;3.00;;
21816;SDS011;13247;47.504;7.382;2024-01-30T00:49:24;5.80;;;3.25;;
21816;SDS011;13247;47.504;7.382;2024-01-30T00:52:09;6.35;;;3.00;;
21816;SDS011;13247;47.504;7.382;2024-01-30T00:54:53;5.88;;;3.72;;
21816;SDS011;13247;47.504;7.382;2024-01-30T00:57:38;7.45;;;4.22;;
21816;SDS011;13247;47.504;7.382;2024-01-30T01:00:22;9.02;;;3.90;;
21816;SDS011;13247;47.504;7.382;2024-01-30T01:03:12;4.88;;;3.22;;
21816;SDS011;13247;47.504;7.382;2024-01-30T01:05:57;7.95;;;3.95;;
21816;SDS011;13247;47.504;7.382;2024-01-30T01:08:42;9.00;;;4.30;;
21816;SDS011;13247;47.504;7.382;2024-01-30T01:11:26;7.88;;;3.65;;
21816;SDS011;13247;47.504;7.382;2024-01-30T01:14:11;9.02;;;3.85;;
21816;SDS011;13247;47.504;7.382;2024-01-30T01:16:56;6.97;;;3.60;;
21816;SDS011;13247;47.504;7.382;2024-01-30T01:19:40;7.53;;;3.72;;
21816;SDS011;13247;47.504;7.382;2024-01-30T01:22:25;9.27;;;4.05;;
21816;SDS011;13247;47.504;7.382;2024-01-30T01:25:09;6.22;;;3.65;;
21816;SDS011;13247;47.504;7.382;2024-01-30T01:27:54;7.78;;;4.10;;
21816;SDS011;13247;47.504;7.382;2024-01-30T01:30:39;11.57;;;4.40;;
21816;SDS011;13247;47.504;7.382;2024-01-30T01:33:23;8.75;;;4.00;;
21816;SDS011;13247;47.504;7.382;2024-01-30T01:36:08;8.70;;;4.05;;
21816;SDS011;13247;47.504;7.382;2024-01-30T01:38:53;9.90;;;4.50;;
21816;SDS011;13247;47.504;7.382;2024-01-30T01:41:37;7.07;;;3.85;;
21816;SDS011;13247;47.504;7.382;2024-01-30T01:44:22;10.82;;;3.63;;
21816;SDS011;13247;47.504;7.382;2024-01-30T01:47:06;9.48;;;4.25;;
21816;SDS011;13247;47.504;7.382;2024-01-30T01:49:51;6.75;;;3.55;;
21816;SDS011;13247;47.504;7.382;2024-01-30T01:52:36;8.27;;;4.43;;
21816;SDS011;13247;47.504;7.382;2024-01-30T01:55:22;8.43;;;4.25;;
21816;SDS011;13247;47.504;7.382;2024-01-30T01:58:10;8.48;;;4.03;;
21816;SDS011;13247;47.504;7.382;2024-01-30T02:00:56;5.88;;;3.22;;
21816;SDS011;13247;47.504;7.382;2024-01-30T02:03:43;5.85;;;3.50;;
21816;SDS011;13247;47.504;7.382;2024-01-30T02:06:28;7.75;;;4.05;;
21816;SDS011;13247;47.504;7.382;2024-01-30T02:09:12;6.05;;;3.42;;
21816;SDS011;13247;47.504;7.382;2024-01-30T02:11:57;5.55;;;3.40;;
21816;SDS011;13247;47.504;7.382;2024-01-30T02:14:45;8.40;;;3.13;;
21816;SDS011;13247;47.504;7.382;2024-01-30T02:17:30;5.93;;;3.13;;
21816;SDS011;13247;47.504;7.382;2024-01-30T02:20:15;5.22;;;2.95;;
21816;SDS011;13247;47.504;7.382;2024-01-30T02:22:59;4.63;;;2.92;;
21816;SDS011;13247;47.504;7.382;2024-01-30T02:25:46;4.00;;;2.65;;
21816;SDS011;13247;47.504;7.382;2024-01-30T02:28:31;7.97;;;3.17;;
21816;SDS011;13247;47.504;7.382;2024-01-30T02:31:16;7.03;;;3.17;;
21816;SDS011;13247;47.504;7.382;2024-01-30T02:34:00;4.40;;;3.15;;
21816;SDS011;13247;47.504;7.382;2024-01-30T02:36:45;5.55;;;2.88;;
21816;SDS011;13247;47.504;7.382;2024-01-30T02:39:30;4.53;;;2.92;;
21816;SDS011;13247;47.504;7.382;2024-01-30T02:42:15;7.63;;;3.45;;
21816;SDS011;13247;47.504;7.382;2024-01-30T02:44:59;5.45;;;3.45;;
21816;SDS011;13247;47.504;7.382;2024-01-30T02:47:45;4.53;;;3.08;;
21816;SDS011;13247;47.504;7.382;2024-01-30T02:50:29;7.80;;;2.90;;
21816;SDS011;13247;47.504;7.382;2024-01-30T02:53:14;4.30;;;3.22;;
21816;SDS011;13247;47.504;7.382;2024-01-30T02:55:59;7.05;;;3.70;;
21816;SDS011;13247;47.504;7.382;2024-01-30T02:58:44;9.45;;;3.00;;
21816;SDS011;13247;47.504;7.382;2024-01-30T03:01:29;7.13;;;3.78;;
21816;SDS011;13247;47.504;7.382;2024-01-30T03:04:15;8.98;;;3.72;;
21816;SDS011;13247;47.504;7.382;2024-01-30T03:07:00;6.90;;;3.30;;
21816;SDS011;13247;47.504;7.382;2024-01-30T03:09:44;5.13;;;2.95;;
21816;SDS011;13247;47.504;7.382;2024-01-30T03:12:29;6.38;;;2.53;;
21816;SDS011;13247;47.504;7.382;2024-01-30T03:15:14;5.22;;;3.03;;
21816;SDS011;13247;47.504;7.382;2024-01-30T03:17:58;4.15;;;2.50;;
21816;SDS011;13247;47.504;7.382;2024-01-30T03:20:43;2.33;;;1.92;;
21816;SDS011;13247;47.504;7.382;2024-01-30T03:23:28;4.00;;;3.15;;
21816;SDS011;13247;47.504;7.382;2024-01-30T03:26:13;3.65;;;2.40;;
21816;SDS011;13247;47.504;7.382;2024-01-30T03:28:59;5.18;;;2.30;;
21816;SDS011;13247;47.504;7.382;2024-01-30T03:31:43;6.45;;;2.55;;
21816;SDS011;13247;47.504;7.382;2024-01-30T03:34:28;4.30;;;3.15;;
21816;SDS011;13247;47.504;7.382;2024-01-30T03:37:13;5.72;;;2.50;;
21816;SDS011;13247;47.504;7.382;2024-01-30T03:39:57;5.38;;;2.80;;
21816;SDS011;13247;47.504;7.382;2024-01-30T03:42:42;4.93;;;2.53;;
21816;SDS011;13247;47.504;7.382;2024-01-30T03:45:26;4.45;;;2.90;;
21816;SDS011;13247;47.504;7.382;2024-01-30T03:48:11;9.63;;;3.05;;
21816;SDS011;13247;47.504;7.382;2024-01-30T03:50:55;4.85;;;2.42;;
21816;SDS011;13247;47.504;7.382;2024-01-30T03:53:40;4.47;;;2.25;;
21816;SDS011;13247;47.504;7.382;2024-01-30T03:56:25;3.80;;;2.40;;
21816;SDS011;13247;47.504;7.382;2024-01-30T03:59:10;4.35;;;2.58;;
21816;SDS011;13247;47.504;7.382;2024-01-30T04:01:54;8.55;;;3.88;;
21816;SDS011;13247;47.504;7.382;2024-01-30T04:04:39;3.45;;;2.08;;
21816;SDS011;13247;47.504;7.382;2024-01-30T04:07:24;5.05;;;2.45;;
21816;SDS011;13247;47.504;7.382;2024-01-30T04:10:09;6.13;;;2.92;;
21816;SDS011;13247;47.504;7.382;2024-01-30T04:12:54;3.95;;;2.60;;
21816;SDS011;13247;47.504;7.382;2024-01-30T04:15:39;4.30;;;2.20;;
21816;SDS011;13247;47.504;7.382;2024-01-30T04:18:24;3.22;;;2.03;;
21816;SDS011;13247;47.504;7.382;2024-01-30T04:21:08;4.43;;;2.10;;
21816;SDS011;13247;47.504;7.382;2024-01-30T04:23:53;4.20;;;2.45;;
21816;SDS011;13247;47.504;7.382;2024-01-30T04:26:38;3.38;;;2.20;;
21816;SDS011;13247;47.504;7.382;2024-01-30T04:29:22;3.28;;;2.17;;
21816;SDS011;13247;47.504;7.382;2024-01-30T04:32:07;3.72;;;2.30;;
21816;SDS011;13247;47.504;7.382;2024-01-30T04:34:53;5.22;;;2.13;;
21816;SDS011;13247;47.504;7.382;2024-01-30T04:37:37;2.35;;;2.08;;
21816;SDS011;13247;47.504;7.382;2024-01-30T04:40:22;5.60;;;2.05;;
21816;SDS011;13247;47.504;7.382;2024-01-30T04:43:07;4.78;;;2.42;;
21816;SDS011;13247;47.504;7.382;2024-01-30T04:45:52;3.38;;;2.25;;
21816;SDS011;13247;47.504;7.382;2024-01-30T04:48:36;6.35;;;2.58;;
21816;SDS011;13247;47.504;7.382;2024-01-30T04:51:22;5.25;;;2.17;;
21816;SDS011;13247;47.504;7.382;2024-01-30T04:54:06;5.13;;;1.98;;
21816;SDS011;13247;47.504;7.382;2024-01-30T04:56:51;2.55;;;2.05;;
21816;SDS011;13247;47.504;7.382;2024-01-30T04:59:35;2.78;;;1.95;;
21816;SDS011;13247;47.504;7.382;2024-01-30T05:02:20;6.13;;;2.45;;
21816;SDS011;13247;47.504;7.382;2024-01-30T05:05:05;2.25;;;1.88;;
21816;SDS011;13247;47.504;7.382;2024-01-30T05:07:49;2.42;;;2.05;;
21816;SDS011;13247;47.504;7.382;2024-01-30T05:10:34;2.67;;;1.80;;
21816;SDS011;13247;47.504;7.382;2024-01-30T05:13:19;4.45;;;2.22;;
21816;SDS011;13247;47.504;7.382;2024-01-30T05:16:03;3.70;;;1.90;;
21816;SDS011;13247;47.504;7.382;2024-01-30T05:18:48;2.42;;;1.80;;
21816;SDS011;13247;47.504;7.382;2024-01-30T05:21:33;2.65;;;1.75;;
21816;SDS011;13247;47.504;7.382;2024-01-30T05:24:17;2.28;;;1.83;;
21816;SDS011;13247;47.504;7.382;2024-01-30T05:27:02;3.13;;;2.05;;
21816;SDS011;13247;47.504;7.382;2024-01-30T05:29:46;2.92;;;2.08;;
21816;SDS011;13247;47.504;7.382;2024-01-30T05:32:31;4.90;;;2.08;;
21816;SDS011;13247;47.504;7.382;2024-01-30T05:35:15;6.22;;;1.80;;
21816;SDS011;13247;47.504;7.382;2024-01-30T05:38:00;3.13;;;1.80;;
21816;SDS011;13247;47.504;7.382;2024-01-30T05:40:44;4.30;;;1.83;;
21816;SDS011;13247;47.504;7.382;2024-01-30T05:43:29;4.63;;;2.25;;
21816;SDS011;13247;47.504;7.382;2024-01-30T05:46:14;2.72;;;2.00;;
21816;SDS011;13247;47.504;7.382;2024-01-30T05:48:58;3.05;;;1.63;;
21816;SDS011;13247;47.504;7.382;2024-01-30T05:51:43;3.72;;;2.15;;
21816;SDS011;13247;47.504;7.382;2024-01-30T05:54:28;4.05;;;1.85;;
21816;SDS011;13247;47.504;7.382;2024-01-30T05:57:12;4.68;;;2.22;;
21816;SDS011;13247;47.504;7.382;2024-01-30T05:59:57;4.38;;;2.17;;
21816;SDS011;13247;47.504;7.382;2024-01-30T06:02:41;3.90;;;2.28;;
21816;SDS011;13247;47.504;7.382;2024-01-30T06:05:26;9.13;;;3.60;;
21816;SDS011;13247;47.504;7.382;2024-01-30T06:08:10;3.40;;;2.65;;
21816;SDS011;13247;47.504;7.382;2024-01-30T06:10:55;6.25;;;2.65;;
21816;SDS011;13247;47.504;7.382;2024-01-30T06:13:40;2.95;;;2.13;;
21816;SDS011;13247;47.504;7.382;2024-01-30T06:16:24;3.75;;;2.55;;
21816;SDS011;13247;47.504;7.382;2024-01-30T06:19:13;5.07;;;2.20;;
21816;SDS011;13247;47.504;7.382;2024-01-30T06:21:57;5.20;;;1.98;;
21816;SDS011;13247;47.504;7.382;2024-01-30T06:24:43;4.88;;;2.33;;
21816;SDS011;13247;47.504;7.382;2024-01-30T06:27:37;6.18;;;3.17;;
21816;SDS011;13247;47.504;7.382;2024-01-30T06:30:22;5.78;;;2.67;;
21816;SDS011;13247;47.504;7.382;2024-01-30T06:33:06;7.95;;;3.90;;
21816;SDS011;13247;47.504;7.382;2024-01-30T06:35:51;7.45;;;3.97;;
21816;SDS011;13247;47.504;7.382;2024-01-30T06:38:35;7.55;;;2.85;;
21816;SDS011;13247;47.504;7.382;2024-01-30T06:41:20;3.15;;;2.75;;
21816;SDS011;13247;47.504;7.382;2024-01-30T06:44:05;4.20;;;2.22;;
21816;SDS011;13247;47.504;7.382;2024-01-30T06:46:51;3.05;;;2.25;;
21816;SDS011;13247;47.504;7.382;2024-01-30T06:49:36;3.47;;;2.63;;
21816;SDS011;13247;47.504;7.382;2024-01-30T06:52:22;8.10;;;2.67;;
21816;SDS011;13247;47.504;7.382;2024-01-30T06:55:06;3.88;;;2.55;;
21816;SDS011;13247;47.504;7.382;2024-01-30T06:57:51;6.13;;;2.90;;
21816;SDS011;13247;47.504;7.382;2024-01-30T07:00:36;4.88;;;2.78;;
21816;SDS011;13247;47.504;7.382;2024-01-30T07:03:20;5.53;;;3.40;;
21816;SDS011;13247;47.504;7.382;2024-01-30T07:06:06;4.32;;;3.28;;
21816;SDS011;13247;47.504;7.382;2024-01-30T07:08:50;4.43;;;2.90;;
21816;SDS011;13247;47.504;7.382;2024-01-30T07:11:35;10.98;;;5.07;;
21816;SDS011;13247;47.504;7.382;2024-01-30T07:14:19;4.72;;;2.80;;
21816;SDS011;13247;47.504;7.382;2024-01-30T07:17:04;10.23;;;3.10;;
21816;SDS011;13247;47.504;7.382;2024-01-30T07:19:49;4.57;;;3.22;;
21816;SDS011;13247;47.504;7.382;2024-01-30T07:22:34;8.07;;;2.65;;
21816;SDS011;13247;47.504;7.382;2024-01-30T07:25:19;4.50;;;2.90;;
21816;SDS011;13247;47.504;7.382;2024-01-30T07:28:05;10.50;;;5.03;;
21816;SDS011;13247;47.504;7.382;2024-01-30T07:30:50;6.90;;;4.10;;
21816;SDS011;13247;47.504;7.382;2024-01-30T07:33:34;5.38;;;3.60;;
21816;SDS011;13247;47.504;7.382;2024-01-30T07:36:19;6.35;;;4.30;;
21816;SDS011;13247;47.504;7.382;2024-01-30T07:39:04;10.30;;;4.68;;
21816;SDS011;13247;47.504;7.382;2024-01-30T07:41:48;5.63;;;3.83;;
21816;SDS011;13247;47.504;7.382;2024-01-30T07:44:33;9.02;;;4.00;;
21816;SDS011;13247;47.504;7.382;2024-01-30T07:47:18;6.50;;;3.83;;
21816;SDS011;13247;47.504;7.382;2024-01-30T07:50:03;8.55;;;4.95;;
21816;SDS011;13247;47.504;7.382;2024-01-30T07:52:48;52.78;;;14.60;;
21816;SDS011;13247;47.504;7.382;2024-01-30T07:55:34;38.40;;;10.57;;
21816;SDS011;13247;47.504;7.382;2024-01-30T07:58:19;21.65;;;8.77;;
21816;SDS011;13247;47.504;7.382;2024-01-30T08:01:04;32.33;;;11.10;;
21816;SDS011;13247;47.504;7.382;2024-01-30T08:03:48;54.67;;;18.42;;
21816;SDS011;13247;47.504;7.382;2024-01-30T08:06:33;30.65;;;9.20;;
21816;SDS011;13247;47.504;7.382;2024-01-30T08:09:17;432.27;;;181.02;;
21816;SDS011;13247;47.504;7.382;2024-01-30T08:12:02;318.20;;;132.90;;
21816;SDS011;13247;47.504;7.382;2024-01-30T08:14:47;164.45;;;62.60;;
21816;SDS011;13247;47.504;7.382;2024-01-30T08:17:31;100.50;;;37.42;;
21816;SDS011;13247;47.504;7.382;2024-01-30T08:20:16;101.15;;;40.95;;
21816;SDS011;13247;47.504;7.382;2024-01-30T08:23:01;25.15;;;11.45;;
21816;SDS011;13247;47.504;7.382;2024-01-30T08:25:46;21.55;;;10.13;;
21816;SDS011;13247;47.504;7.382;2024-01-30T08:28:31;32.90;;;10.23;;
21816;SDS011;13247;47.504;7.382;2024-01-30T08:31:15;18.10;;;8.30;;
21816;SDS011;13247;47.504;7.382;2024-01-30T08:34:00;26.73;;;8.55;;
21816;SDS011;13247;47.504;7.382;2024-01-30T08:36:45;16.13;;;6.82;;
21816;SDS011;13247;47.504;7.382;2024-01-30T08:39:29;13.52;;;6.43;;
21816;SDS011;13247;47.504;7.382;2024-01-30T08:42:14;12.35;;;5.72;;
21816;SDS011;13247;47.504;7.382;2024-01-30T08:45:01;12.10;;;7.80;;
21816;SDS011;13247;47.504;7.382;2024-01-30T08:47:48;10.27;;;5.80;;
21816;SDS011;13247;47.504;7.382;2024-01-30T08:50:32;13.25;;;7.05;;
21816;SDS011;13247;47.504;7.382;2024-01-30T08:53:18;14.32;;;7.53;;
21816;SDS011;13247;47.504;7.382;2024-01-30T08:56:03;24.27;;;10.25;;
21816;SDS011;13247;47.504;7.382;2024-01-30T08:58:49;22.92;;;10.45;;
21816;SDS011;13247;47.504;7.382;2024-01-30T09:01:33;27.65;;;10.68;;
21816;SDS011;13247;47.504;7.382;2024-01-30T09:04:18;22.13;;;10.98;;
21816;SDS011;13247;47.504;7.382;2024-01-30T09:07:02;15.50;;;7.90;;
21816;SDS011;13247;47.504;7.382;2024-01-30T09:09:49;15.20;;;7.72;;
21816;SDS011;13247;47.504;7.382;2024-01-30T09:12:34;19.75;;;8.82;;
21816;SDS011;13247;47.504;7.382;2024-01-30T09:15:18;16.08;;;6.50;;
21816;SDS011;13247;47.504;7.382;2024-01-30T09:18:04;12.45;;;6.20;;
21816;SDS011;13247;47.504;7.382;2024-01-30T09:20:49;10.43;;;6.45;;
21816;SDS011;13247;47.504;7.382;2024-01-30T09:23:33;22.35;;;11.07;;
21816;SDS011;13247;47.504;7.382;2024-01-30T09:26:18;25.48;;;11.07;;
21816;SDS011;13247;47.504;7.382;2024-01-30T09:29:03;22.60;;;10.40;;
21816;SDS011;13247;47.504;7.382;2024-01-30T09:31:48;16.60;;;8.00;;
21816;SDS011;13247;47.504;7.382;2024-01-30T09:34:32;14.70;;;7.00;;
21816;SDS011;13247;47.504;7.382;2024-01-30T09:37:17;17.02;;;8.20;;
21816;SDS011;13247;47.504;7.382;2024-01-30T09:40:01;15.65;;;7.72;;
21816;SDS011;13247;47.504;7.382;2024-01-30T09:42:50;13.68;;;6.63;;
21816;SDS011;13247;47.504;7.382;2024-01-30T09:45:34;15.38;;;7.57;;
21816;SDS011;13247;47.504;7.382;2024-01-30T09:48:20;17.00;;;8.35;;
21816;SDS011;13247;47.504;7.382;2024-01-30T09:51:05;20.42;;;8.02;;
21816;SDS011;13247;47.504;7.382;2024-01-30T09:53:51;17.88;;;9.25;;
21816;SDS011;13247;47.504;7.382;2024-01-30T09:56:37;17.70;;;9.68;;
21816;SDS011;13247;47.504;7.382;2024-01-30T09:59:21;15.57;;;8.70;;
21816;SDS011;13247;47.504;7.382;2024-01-30T10:02:06;15.75;;;8.77;;
21816;SDS011;13247;47.504;7.382;2024-01-30T10:04:52;17.65;;;8.77;;
21816;SDS011;13247;47.504;7.382;2024-01-30T10:07:37;13.40;;;8.80;;
21816;SDS011;13247;47.504;7.382;2024-01-30T10:10:22;15.77;;;9.18;;
21816;SDS011;13247;47.504;7.382;2024-01-30T10:13:09;14.25;;;8.50;;
21816;SDS011;13247;47.504;7.382;2024-01-30T10:15:55;13.77;;;8.00;;
21816;SDS011;13247;47.504;7.382;2024-01-30T10:18:42;13.57;;;7.35;;
21816;SDS011;13247;47.504;7.382;2024-01-30T10:21:26;17.90;;;8.82;;
21816;SDS011;13247;47.504;7.382;2024-01-30T10:24:11;18.45;;;8.40;;
21816;SDS011;13247;47.504;7.382;2024-01-30T10:26:57;27.85;;;9.82;;
21816;SDS011;13247;47.504;7.382;2024-01-30T10:29:42;22.13;;;9.20;;
21816;SDS011;13247;47.504;7.382;2024-01-30T10:32:26;17.65;;;8.38;;
21816;SDS011;13247;47.504;7.382;2024-01-30T10:35:11;18.23;;;8.27;;
21816;SDS011;13247;47.504;7.382;2024-01-30T10:37:56;16.98;;;10.00;;
21816;SDS011;13247;47.504;7.382;2024-01-30T10:40:44;18.60;;;10.15;;
21816;SDS011;13247;47.504;7.382;2024-01-30T10:43:32;21.55;;;10.50;;
21816;SDS011;13247;47.504;7.382;2024-01-30T10:46:25;20.23;;;11.00;;
21816;SDS011;13247;47.504;7.382;2024-01-30T10:49:15;17.23;;;8.35;;
21816;SDS011;13247;47.504;7.382;2024-01-30T10:52:01;14.15;;;7.88;;
21816;SDS011;13247;47.504;7.382;2024-01-30T10:54:49;12.85;;;7.18;;
21816;SDS011;13247;47.504;7.382;2024-01-30T10:57:35;19.70;;;6.85;;
21816;SDS011;13247;47.504;7.382;2024-01-30T11:00:20;10.75;;;6.22;;
21816;SDS011;13247;47.504;7.382;2024-01-30T11:03:07;13.07;;;6.50;;
21816;SDS011;13247;47.504;7.382;2024-01-30T11:05:52;12.23;;;6.45;;
21816;SDS011;13247;47.504;7.382;2024-01-30T11:08:37;9.73;;;5.78;;
21816;SDS011;13247;47.504;7.382;2024-01-30T11:11:22;11.45;;;6.75;;
21816;SDS011;13247;47.504;7.382;2024-01-30T11:14:06;12.90;;;6.43;;
21816;SDS011;13247;47.504;7.382;2024-01-30T11:16:56;10.70;;;6.75;;
21816;SDS011;13247;47.504;7.382;2024-01-30T11:19:42;10.65;;;6.22;;
21816;SDS011;13247;47.504;7.382;2024-01-30T11:22:27;10.77;;;6.72;;
21816;SDS011;13247;47.504;7.382;2024-01-30T11:25:15;7.72;;;4.93;;
21816;SDS011;13247;47.504;7.382;2024-01-30T11:28:01;8.85;;;5.15;;
21816;SDS011;13247;47.504;7.382;2024-01-30T11:30:46;14.13;;;5.70;;
21816;SDS011;13247;47.504;7.382;2024-01-30T11:33:34;9.00;;;5.38;;
21816;SDS011;13247;47.504;7.382;2024-01-30T11:36:19;9.75;;;5.78;;
21816;SDS011;13247;47.504;7.382;2024-01-30T11:39:09;10.70;;;5.43;;
21816;SDS011;13247;47.504;7.382;2024-01-30T11:41:54;6.63;;;4.80;;
21816;SDS011;13247;47.504;7.382;2024-01-30T11:44:39;9.10;;;5.47;;
21816;SDS011;13247;47.504;7.382;2024-01-30T11:47:24;8.38;;;5.75;;
21816;SDS011;13247;47.504;7.382;2024-01-30T11:50:09;7.68;;;4.50;;
21816;SDS011;13247;47.504;7.382;2024-01-30T11:52:54;7.13;;;4.22;;
21816;SDS011;13247;47.504;7.382;2024-01-30T11:55:39;8.90;;;4.35;;
21816;SDS011;13247;47.504;7.382;2024-01-30T11:58:27;5.20;;;3.03;;
21816;SDS011;13247;47.504;7.382;2024-01-30T12:01:11;4.70;;;3.17;;
21816;SDS011;13247;47.504;7.382;2024-01-30T12:03:56;4.82;;;3.33;;
21816;SDS011;13247;47.504;7.382;2024-01-30T12:06:42;5.28;;;3.97;;
21816;SDS011;13247;47.504;7.382;2024-01-30T12:09:27;6.78;;;3.75;;
21816;SDS011;13247;47.504;7.382;2024-01-30T12:12:11;5.45;;;3.78;;
21816;SDS011;13247;47.504;7.382;2024-01-30T12:14:58;5.70;;;3.83;;
21816;SDS011;13247;47.504;7.382;2024-01-30T12:17:43;7.15;;;3.85;;
21816;SDS011;13247;47.504;7.382;2024-01-30T12:20:27;6.07;;;3.45;;
21816;SDS011;13247;47.504;7.382;2024-01-30T12:23:12;9.43;;;4.75;;
21816;SDS011;13247;47.504;7.382;2024-01-30T12:25:57;8.82;;;4.43;;
21816;SDS011;13247;47.504;7.382;2024-01-30T12:28:49;9.10;;;4.07;;
21816;SDS011;13247;47.504;7.382;2024-01-30T12:31:33;4.68;;;2.92;;
21816;SDS011;13247;47.504;7.382;2024-01-30T12:34:18;6.10;;;3.00;;
21816;SDS011;13247;47.504;7.382;2024-01-30T12:37:04;6.85;;;3.65;;
21816;SDS011;13247;47.504;7.382;2024-01-30T12:39:53;5.97;;;3.58;;
21816;SDS011;13247;47.504;7.382;2024-01-30T12:42:38;5.18;;;3.45;;
21816;SDS011;13247;47.504;7.382;2024-01-30T12:45:23;6.60;;;3.35;;
21816;SDS011;13247;47.504;7.382;2024-01-30T12:48:09;5.53;;;3.67;;
21816;SDS011;13247;47.504;7.382;2024-01-30T12:50:54;6.63;;;3.42;;
21816;SDS011;13247;47.504;7.382;2024-01-30T12:53:39;6.53;;;3.42;;
21816;SDS011;13247;47.504;7.382;2024-01-30T12:56:24;5.18;;;3.42;;
21816;SDS011;13247;47.504;7.382;2024-01-30T12:59:08;5.65;;;3.00;;
21816;SDS011;13247;47.504;7.382;2024-01-30T13:01:53;4.65;;;3.17;;
21816;SDS011;13247;47.504;7.382;2024-01-30T13:04:38;4.10;;;2.63;;
21816;SDS011;13247;47.504;7.382;2024-01-30T13:07:23;5.10;;;3.20;;
21816;SDS011;13247;47.504;7.382;2024-01-30T13:10:08;6.95;;;3.05;;
21816;SDS011;13247;47.504;7.382;2024-01-30T13:12:53;7.53;;;3.80;;
21816;SDS011;13247;47.504;7.382;2024-01-30T13:15:38;6.50;;;3.97;;
21816;SDS011;13247;47.504;7.382;2024-01-30T13:18:22;5.15;;;3.20;;
21816;SDS011;13247;47.504;7.382;2024-01-30T13:21:06;6.88;;;3.50;;
21816;SDS011;13247;47.504;7.382;2024-01-30T13:23:51;6.70;;;3.70;;
21816;SDS011;13247;47.504;7.382;2024-01-30T13:26:37;6.22;;;3.35;;
21816;SDS011;13247;47.504;7.382;2024-01-30T13:29:23;6.22;;;3.00;;
21816;SDS011;13247;47.504;7.382;2024-01-30T13:32:07;6.80;;;2.92;;
21816;SDS011;13247;47.504;7.382;2024-01-30T13:34:52;4.85;;;3.20;;
21816;SDS011;13247;47.504;7.382;2024-01-30T13:37:37;6.65;;;3.45;;
21816;SDS011;13247;47.504;7.382;2024-01-30T13:40:22;4.82;;;3.10;;
21816;SDS011;13247;47.504;7.382;2024-01-30T13:43:06;6.45;;;3.60;;
21816;SDS011;13247;47.504;7.382;2024-01-30T13:45:51;4.28;;;3.20;;
21816;SDS011;13247;47.504;7.382;2024-01-30T13:48:36;4.97;;;3.10;;
21816;SDS011;13247;47.504;7.382;2024-01-30T13:51:20;6.93;;;3.65;;
21816;SDS011;13247;47.504;7.382;2024-01-30T13:54:06;6.05;;;3.47;;
21816;SDS011;13247;47.504;7.382;2024-01-30T13:56:50;4.97;;;3.25;;
21816;SDS011;13247;47.504;7.382;2024-01-30T13:59:35;8.38;;;4.90;;
21816;SDS011;13247;47.504;7.382;2024-01-30T14:02:21;5.90;;;3.38;;
21816;SDS011;13247;47.504;7.382;2024-01-30T14:05:06;6.53;;;3.30;;
21816;SDS011;13247;47.504;7.382;2024-01-30T14:07:54;7.10;;;3.55;;
21816;SDS011;13247;47.504;7.382;2024-01-30T14:10:39;4.80;;;2.97;;
21816;SDS011;13247;47.504;7.382;2024-01-30T14:13:24;5.70;;;3.67;;
21816;SDS011;13247;47.504;7.382;2024-01-30T14:16:09;6.35;;;4.00;;
21816;SDS011;13247;47.504;7.382;2024-01-30T14:18:53;7.97;;;4.60;;
21816;SDS011;13247;47.504;7.382;2024-01-30T14:21:38;6.53;;;3.63;;
21816;SDS011;13247;47.504;7.382;2024-01-30T14:24:22;7.05;;;3.95;;
21816;SDS011;13247;47.504;7.382;2024-01-30T14:27:07;4.78;;;3.25;;
21816;SDS011;13247;47.504;7.382;2024-01-30T14:29:52;6.45;;;3.88;;
21816;SDS011;13247;47.504;7.382;2024-01-30T14:32:36;5.57;;;3.72;;
21816;SDS011;13247;47.504;7.382;2024-01-30T14:35:22;7.05;;;3.65;;
21816;SDS011;13247;47.504;7.382;2024-01-30T14:38:07;8.88;;;4.15;;
21816;SDS011;13247;47.504;7.382;2024-01-30T14:40:51;6.85;;;3.60;;
21816;SDS011;13247;47.504;7.382;2024-01-30T14:43:36;5.78;;;3.95;;
21816;SDS011;13247;47.504;7.382;2024-01-30T14:46:21;8.40;;;4.18;;
21816;SDS011;13247;47.504;7.382;2024-01-30T14:49:06;9.10;;;4.53;;
21816;SDS011;13247;47.504;7.382;2024-01-30T14:51:51;8.55;;;4.85;;
21816;SDS011;13247;47.504;7.382;2024-01-30T14:54:36;6.32;;;4.28;;
21816;SDS011;13247;47.504;7.382;2024-01-30T14:57:20;5.90;;;3.75;;
21816;SDS011;13247;47.504;7.382;2024-01-30T15:00:06;6.05;;;3.90;;
21816;SDS011;13247;47.504;7.382;2024-01-30T15:02:50;4.90;;;2.97;;
21816;SDS011;13247;47.504;7.382;2024-01-30T15:05:36;5.93;;;2.97;;
21816;SDS011;13247;47.504;7.382;2024-01-30T15:08:21;4.88;;;3.53;;
21816;SDS011;13247;47.504;7.382;2024-01-30T15:11:06;7.88;;;3.72;;
21816;SDS011;13247;47.504;7.382;2024-01-30T15:13:50;8.05;;;4.22;;
21816;SDS011;13247;47.504;7.382;2024-01-30T15:16:35;11.00;;;5.45;;
21816;SDS011;13247;47.504;7.382;2024-01-30T15:19:20;10.68;;;6.15;;
21816;SDS011;13247;47.504;7.382;2024-01-30T15:22:04;10.18;;;6.35;;
21816;SDS011;13247;47.504;7.382;2024-01-30T15:24:49;8.15;;;5.57;;
21816;SDS011;13247;47.504;7.382;2024-01-30T15:27:33;11.00;;;5.90;;
21816;SDS011;13247;47.504;7.382;2024-01-30T15:30:18;12.15;;;6.47;;
21816;SDS011;13247;47.504;7.382;2024-01-30T15:33:06;16.52;;;10.10;;
21816;SDS011;13247;47.504;7.382;2024-01-30T15:35:50;16.10;;;10.40;;
21816;SDS011;13247;47.504;7.382;2024-01-30T15:38:35;23.58;;;14.23;;
21816;SDS011;13247;47.504;7.382;2024-01-30T15:41:20;18.00;;;10.48;;
21816;SDS011;13247;47.504;7.382;2024-01-30T15:44:05;14.48;;;7.82;;
21816;SDS011;13247;47.504;7.382;2024-01-30T15:46:50;11.88;;;8.30;;
21816;SDS011;13247;47.504;7.382;2024-01-30T15:49:35;17.05;;;6.65;;
21816;SDS011;13247;47.504;7.382;2024-01-30T15:52:20;9.75;;;5.68;;
21816;SDS011;13247;47.504;7.382;2024-01-30T15:55:04;9.63;;;5.25;;
21816;SDS011;13247;47.504;7.382;2024-01-30T15:57:50;9.25;;;5.53;;
21816;SDS011;13247;47.504;7.382;2024-01-30T16:00:35;9.27;;;4.10;;
21816;SDS011;13247;47.504;7.382;2024-01-30T16:03:19;6.80;;;4.70;;
21816;SDS011;13247;47.504;7.382;2024-01-30T16:06:04;8.02;;;4.28;;
21816;SDS011;13247;47.504;7.382;2024-01-30T16:08:48;9.45;;;4.78;;
21816;SDS011;13247;47.504;7.382;2024-01-30T16:11:33;9.13;;;4.78;;
21816;SDS011;13247;47.504;7.382;2024-01-30T16:14:19;13.52;;;6.90;;
21816;SDS011;13247;47.504;7.382;2024-01-30T16:17:03;11.23;;;6.00;;
21816;SDS011;13247;47.504;7.382;2024-01-30T16:19:48;8.55;;;5.60;;
21816;SDS011;13247;47.504;7.382;2024-01-30T16:22:36;10.07;;;6.50;;
21816;SDS011;13247;47.504;7.382;2024-01-30T16:25:20;12.55;;;7.38;;
21816;SDS011;13247;47.504;7.382;2024-01-30T16:28:06;15.45;;;9.35;;
21816;SDS011;13247;47.504;7.382;2024-01-30T16:30:51;13.05;;;7.35;;